TAF and METAR

Decoding for American and Canadian METARs and TAFs is not fully implemented.

Could not understand the following METAR

KMMU 311158Z 36009G15KT 10SM SKC 14/06 A3009
No TAF available for Morristown Municipal Airport
Morristown Municipal Airport in United States of America at 57m

Latest 5 airports